sensor_id;sensor_type;location;lat;lon;timestamp;P1;durP1;ratioP1;P2;durP2;ratioP2
77597;SDS011;66756;42.774;23.354;2023-08-06T00:01:06;4.47;;;2.28;;
77597;SDS011;66756;42.774;23.354;2023-08-06T00:03:32;5.03;;;2.88;;
77597;SDS011;66756;42.774;23.354;2023-08-06T00:05:58;4.65;;;1.73;;
77597;SDS011;66756;42.774;23.354;2023-08-06T00:08:25;10.15;;;3.17;;
77597;SDS011;66756;42.774;23.354;2023-08-06T00:10:51;3.63;;;2.70;;
77597;SDS011;66756;42.774;23.354;2023-08-06T00:13:17;6.50;;;3.25;;
77597;SDS011;66756;42.774;23.354;2023-08-06T00:15:43;5.72;;;2.50;;
77597;SDS011;66756;42.774;23.354;2023-08-06T00:18:09;5.97;;;2.38;;
77597;SDS011;66756;42.774;23.354;2023-08-06T00:20:35;4.50;;;1.58;;
77597;SDS011;66756;42.774;23.354;2023-08-06T00:23:04;5.90;;;3.13;;
77597;SDS011;66756;42.774;23.354;2023-08-06T00:25:30;5.90;;;2.70;;
77597;SDS011;66756;42.774;23.354;2023-08-06T00:27:56;3.85;;;1.42;;
77597;SDS011;66756;42.774;23.354;2023-08-06T00:30:22;4.40;;;2.85;;
77597;SDS011;66756;42.774;23.354;2023-08-06T00:32:48;4.28;;;2.50;;
77597;SDS011;66756;42.774;23.354;2023-08-06T00:35:14;20.48;;;4.55;;
77597;SDS011;66756;42.774;23.354;2023-08-06T00:37:40;4.07;;;2.42;;
77597;SDS011;66756;42.774;23.354;2023-08-06T00:40:06;8.25;;;2.25;;
77597;SDS011;66756;42.774;23.354;2023-08-06T00:42:33;4.75;;;2.33;;
77597;SDS011;66756;42.774;23.354;2023-08-06T00:45:00;6.47;;;2.60;;
77597;SDS011;66756;42.774;23.354;2023-08-06T00:47:26;4.25;;;2.88;;
77597;SDS011;66756;42.774;23.354;2023-08-06T00:49:52;4.28;;;2.50;;
77597;SDS011;66756;42.774;23.354;2023-08-06T00:52:18;6.20;;;2.42;;
77597;SDS011;66756;42.774;23.354;2023-08-06T00:54:44;6.47;;;2.50;;
77597;SDS011;66756;42.774;23.354;2023-08-06T00:57:10;4.80;;;2.13;;
77597;SDS011;66756;42.774;23.354;2023-08-06T00:59:37;4.93;;;2.30;;
77597;SDS011;66756;42.774;23.354;2023-08-06T01:02:03;4.65;;;2.53;;
77597;SDS011;66756;42.774;23.354;2023-08-06T01:04:29;3.53;;;2.42;;
77597;SDS011;66756;42.774;23.354;2023-08-06T01:17:18;5.38;;;3.33;;
77597;SDS011;66756;42.774;23.354;2023-08-06T01:19:45;4.97;;;1.98;;
77597;SDS011;66756;42.774;23.354;2023-08-06T01:22:11;4.78;;;2.60;;
77597;SDS011;66756;42.774;23.354;2023-08-06T01:24:37;3.92;;;2.17;;
77597;SDS011;66756;42.774;23.354;2023-08-06T01:27:04;4.50;;;3.65;;
77597;SDS011;66756;42.774;23.354;2023-08-06T01:29:33;4.57;;;2.63;;
77597;SDS011;66756;42.774;23.354;2023-08-06T01:32:00;3.80;;;2.60;;
77597;SDS011;66756;42.774;23.354;2023-08-06T01:34:28;5.00;;;3.13;;
77597;SDS011;66756;42.774;23.354;2023-08-06T01:36:54;4.40;;;3.47;;
77597;SDS011;66756;42.774;23.354;2023-08-06T01:39:21;4.60;;;3.03;;
77597;SDS011;66756;42.774;23.354;2023-08-06T01:41:50;5.75;;;3.08;;
77597;SDS011;66756;42.774;23.354;2023-08-06T01:44:16;6.55;;;3.17;;
77597;SDS011;66756;42.774;23.354;2023-08-06T01:46:42;4.97;;;2.30;;
77597;SDS011;66756;42.774;23.354;2023-08-06T01:49:08;5.70;;;3.65;;
77597;SDS011;66756;42.774;23.354;2023-08-06T01:51:35;5.35;;;3.40;;
77597;SDS011;66756;42.774;23.354;2023-08-06T01:54:01;5.20;;;3.63;;
77597;SDS011;66756;42.774;23.354;2023-08-06T01:56:27;5.22;;;3.35;;
77597;SDS011;66756;42.774;23.354;2023-08-06T01:58:53;5.13;;;3.15;;
77597;SDS011;66756;42.774;23.354;2023-08-06T02:01:19;6.97;;;3.47;;
77597;SDS011;66756;42.774;23.354;2023-08-06T02:03:45;6.13;;;3.47;;
77597;SDS011;66756;42.774;23.354;2023-08-06T02:06:12;5.03;;;2.95;;
77597;SDS011;66756;42.774;23.354;2023-08-06T02:08:38;5.80;;;3.00;;
77597;SDS011;66756;42.774;23.354;2023-08-06T02:11:04;5.45;;;2.88;;
77597;SDS011;66756;42.774;23.354;2023-08-06T02:13:30;5.28;;;2.97;;
77597;SDS011;66756;42.774;23.354;2023-08-06T02:15:57;7.95;;;4.20;;
77597;SDS011;66756;42.774;23.354;2023-08-06T02:18:23;4.85;;;2.78;;
77597;SDS011;66756;42.774;23.354;2023-08-06T02:20:55;5.82;;;3.03;;
77597;SDS011;66756;42.774;23.354;2023-08-06T02:23:25;4.28;;;1.83;;
77597;SDS011;66756;42.774;23.354;2023-08-06T02:25:58;5.20;;;2.33;;
77597;SDS011;66756;42.774;23.354;2023-08-06T02:28:24;4.60;;;3.13;;
77597;SDS011;66756;42.774;23.354;2023-08-06T02:30:51;6.03;;;3.10;;
77597;SDS011;66756;42.774;23.354;2023-08-06T02:33:17;11.18;;;3.83;;
77597;SDS011;66756;42.774;23.354;2023-08-06T02:35:43;4.05;;;2.80;;
77597;SDS011;66756;42.774;23.354;2023-08-06T02:38:09;6.68;;;3.53;;
77597;SDS011;66756;42.774;23.354;2023-08-06T02:40:35;10.25;;;3.65;;
77597;SDS011;66756;42.774;23.354;2023-08-06T02:43:01;15.68;;;3.88;;
77597;SDS011;66756;42.774;23.354;2023-08-06T02:45:28;15.75;;;4.53;;
77597;SDS011;66756;42.774;23.354;2023-08-06T02:47:54;9.98;;;2.95;;
77597;SDS011;66756;42.774;23.354;2023-08-06T02:50:20;9.65;;;3.80;;
77597;SDS011;66756;42.774;23.354;2023-08-06T02:52:46;6.43;;;3.47;;
77597;SDS011;66756;42.774;23.354;2023-08-06T02:55:13;7.13;;;3.88;;
77597;SDS011;66756;42.774;23.354;2023-08-06T02:57:39;5.88;;;3.08;;
77597;SDS011;66756;42.774;23.354;2023-08-06T03:00:05;5.88;;;2.65;;
77597;SDS011;66756;42.774;23.354;2023-08-06T03:02:31;4.85;;;3.05;;
77597;SDS011;66756;42.774;23.354;2023-08-06T03:04:57;4.88;;;3.05;;
77597;SDS011;66756;42.774;23.354;2023-08-06T03:07:23;5.18;;;2.60;;
77597;SDS011;66756;42.774;23.354;2023-08-06T03:09:49;5.18;;;3.10;;
77597;SDS011;66756;42.774;23.354;2023-08-06T03:12:15;4.40;;;2.72;;
77597;SDS011;66756;42.774;23.354;2023-08-06T03:14:41;4.72;;;2.67;;
77597;SDS011;66756;42.774;23.354;2023-08-06T03:17:07;4.47;;;2.95;;
77597;SDS011;66756;42.774;23.354;2023-08-06T03:19:35;6.38;;;2.92;;
77597;SDS011;66756;42.774;23.354;2023-08-06T03:22:02;6.05;;;3.35;;
77597;SDS011;66756;42.774;23.354;2023-08-06T03:24:29;4.78;;;2.90;;
77597;SDS011;66756;42.774;23.354;2023-08-06T03:26:55;4.78;;;2.80;;
77597;SDS011;66756;42.774;23.354;2023-08-06T03:29:21;8.90;;;3.47;;
77597;SDS011;66756;42.774;23.354;2023-08-06T03:31:47;5.15;;;3.30;;
77597;SDS011;66756;42.774;23.354;2023-08-06T03:34:13;5.65;;;3.85;;
77597;SDS011;66756;42.774;23.354;2023-08-06T03:36:40;5.75;;;3.45;;
77597;SDS011;66756;42.774;23.354;2023-08-06T03:39:06;4.00;;;1.95;;
77597;SDS011;66756;42.774;23.354;2023-08-06T03:41:32;6.15;;;2.22;;
77597;SDS011;66756;42.774;23.354;2023-08-06T03:43:58;6.30;;;3.08;;
77597;SDS011;66756;42.774;23.354;2023-08-06T03:46:27;4.95;;;3.25;;
77597;SDS011;66756;42.774;23.354;2023-08-06T03:48:53;4.95;;;3.13;;
77597;SDS011;66756;42.774;23.354;2023-08-06T03:51:22;5.63;;;3.15;;
77597;SDS011;66756;42.774;23.354;2023-08-06T03:53:48;5.60;;;3.45;;
77597;SDS011;66756;42.774;23.354;2023-08-06T03:56:14;4.97;;;3.17;;
77597;SDS011;66756;42.774;23.354;2023-08-06T03:58:40;4.88;;;3.08;;
77597;SDS011;66756;42.774;23.354;2023-08-06T04:01:06;4.72;;;3.35;;
77597;SDS011;66756;42.774;23.354;2023-08-06T04:03:32;5.43;;;3.17;;
77597;SDS011;66756;42.774;23.354;2023-08-06T04:05:58;3.55;;;2.95;;
77597;SDS011;66756;42.774;23.354;2023-08-06T04:08:24;3.88;;;3.33;;
77597;SDS011;66756;42.774;23.354;2023-08-06T04:10:54;5.28;;;3.20;;
77597;SDS011;66756;42.774;23.354;2023-08-06T04:13:20;4.53;;;3.53;;
77597;SDS011;66756;42.774;23.354;2023-08-06T04:15:46;5.22;;;3.33;;
77597;SDS011;66756;42.774;23.354;2023-08-06T04:18:15;4.43;;;3.95;;
77597;SDS011;66756;42.774;23.354;2023-08-06T04:20:42;4.00;;;3.35;;
77597;SDS011;66756;42.774;23.354;2023-08-06T04:23:10;4.80;;;3.33;;
77597;SDS011;66756;42.774;23.354;2023-08-06T04:25:37;4.93;;;3.25;;
77597;SDS011;66756;42.774;23.354;2023-08-06T04:28:03;3.97;;;2.05;;
77597;SDS011;66756;42.774;23.354;2023-08-06T04:30:29;4.70;;;3.28;;
77597;SDS011;66756;42.774;23.354;2023-08-06T04:32:56;6.75;;;3.63;;
77597;SDS011;66756;42.774;23.354;2023-08-06T04:35:25;5.55;;;2.70;;
77597;SDS011;66756;42.774;23.354;2023-08-06T04:37:51;4.18;;;3.28;;
77597;SDS011;66756;42.774;23.354;2023-08-06T04:40:17;5.97;;;3.63;;
77597;SDS011;66756;42.774;23.354;2023-08-06T04:42:43;5.15;;;3.63;;
77597;SDS011;66756;42.774;23.354;2023-08-06T04:45:09;5.30;;;3.53;;
77597;SDS011;66756;42.774;23.354;2023-08-06T04:47:35;3.97;;;2.42;;
77597;SDS011;66756;42.774;23.354;2023-08-06T04:50:01;4.55;;;4.05;;
77597;SDS011;66756;42.774;23.354;2023-08-06T04:52:27;4.60;;;3.15;;
77597;SDS011;66756;42.774;23.354;2023-08-06T04:54:54;4.03;;;2.92;;
77597;SDS011;66756;42.774;23.354;2023-08-06T04:57:20;3.85;;;2.30;;
77597;SDS011;66756;42.774;23.354;2023-08-06T04:59:46;3.95;;;3.28;;
77597;SDS011;66756;42.774;23.354;2023-08-06T05:02:15;4.03;;;3.05;;
77597;SDS011;66756;42.774;23.354;2023-08-06T05:04:41;5.65;;;3.40;;
77597;SDS011;66756;42.774;23.354;2023-08-06T05:07:07;4.55;;;3.10;;
77597;SDS011;66756;42.774;23.354;2023-08-06T05:09:33;4.05;;;2.78;;
77597;SDS011;66756;42.774;23.354;2023-08-06T05:12:00;4.97;;;3.03;;
77597;SDS011;66756;42.774;23.354;2023-08-06T05:14:27;5.35;;;2.97;;
77597;SDS011;66756;42.774;23.354;2023-08-06T05:16:53;4.85;;;2.75;;
77597;SDS011;66756;42.774;23.354;2023-08-06T05:19:19;2.58;;;2.05;;
77597;SDS011;66756;42.774;23.354;2023-08-06T05:21:45;3.55;;;2.47;;
77597;SDS011;66756;42.774;23.354;2023-08-06T05:24:11;3.38;;;2.35;;
77597;SDS011;66756;42.774;23.354;2023-08-06T05:26:37;4.18;;;3.08;;
77597;SDS011;66756;42.774;23.354;2023-08-06T05:29:03;3.80;;;1.70;;
77597;SDS011;66756;42.774;23.354;2023-08-06T05:31:29;4.07;;;0.93;;
77597;SDS011;66756;42.774;23.354;2023-08-06T05:33:55;3.13;;;2.45;;
77597;SDS011;66756;42.774;23.354;2023-08-06T05:36:22;2.60;;;2.10;;
77597;SDS011;66756;42.774;23.354;2023-08-06T05:38:48;3.42;;;2.03;;
77597;SDS011;66756;42.774;23.354;2023-08-06T05:41:14;2.95;;;2.47;;
77597;SDS011;66756;42.774;23.354;2023-08-06T05:43:40;3.03;;;2.05;;
77597;SDS011;66756;42.774;23.354;2023-08-06T05:46:06;2.63;;;1.23;;
77597;SDS011;66756;42.774;23.354;2023-08-06T05:48:32;5.68;;;3.05;;
77597;SDS011;66756;42.774;23.354;2023-08-06T05:50:58;1.83;;;1.60;;
77597;SDS011;66756;42.774;23.354;2023-08-06T05:53:24;2.35;;;1.95;;
77597;SDS011;66756;42.774;23.354;2023-08-06T05:55:50;3.00;;;1.80;;
77597;SDS011;66756;42.774;23.354;2023-08-06T05:58:16;3.28;;;1.98;;
77597;SDS011;66756;42.774;23.354;2023-08-06T06:00:42;4.15;;;2.10;;
77597;SDS011;66756;42.774;23.354;2023-08-06T06:03:09;3.05;;;2.55;;
77597;SDS011;66756;42.774;23.354;2023-08-06T06:05:38;2.88;;;1.45;;
77597;SDS011;66756;42.774;23.354;2023-08-06T06:08:05;5.18;;;2.63;;
77597;SDS011;66756;42.774;23.354;2023-08-06T06:10:32;3.53;;;2.53;;
77597;SDS011;66756;42.774;23.354;2023-08-06T06:12:59;3.30;;;2.38;;
77597;SDS011;66756;42.774;23.354;2023-08-06T06:15:25;3.22;;;2.42;;
77597;SDS011;66756;42.774;23.354;2023-08-06T06:17:52;3.95;;;1.85;;
77597;SDS011;66756;42.774;23.354;2023-08-06T06:20:19;2.70;;;2.10;;
77597;SDS011;66756;42.774;23.354;2023-08-06T06:22:46;2.58;;;0.85;;
77597;SDS011;66756;42.774;23.354;2023-08-06T06:25:12;3.05;;;2.08;;
77597;SDS011;66756;42.774;23.354;2023-08-06T06:27:38;1.90;;;0.68;;
77597;SDS011;66756;42.774;23.354;2023-08-06T06:30:04;4.57;;;1.55;;
77597;SDS011;66756;42.774;23.354;2023-08-06T06:32:31;4.05;;;1.67;;
77597;SDS011;66756;42.774;23.354;2023-08-06T06:34:57;2.25;;;1.25;;
77597;SDS011;66756;42.774;23.354;2023-08-06T06:37:24;2.15;;;1.33;;
77597;SDS011;66756;42.774;23.354;2023-08-06T06:39:50;3.28;;;2.03;;
77597;SDS011;66756;42.774;23.354;2023-08-06T06:42:16;1.50;;;1.23;;
77597;SDS011;66756;42.774;23.354;2023-08-06T06:44:42;2.92;;;2.20;;
77597;SDS011;66756;42.774;23.354;2023-08-06T06:47:08;2.15;;;1.95;;
77597;SDS011;66756;42.774;23.354;2023-08-06T06:49:37;1.67;;;1.52;;
77597;SDS011;66756;42.774;23.354;2023-08-06T06:52:03;2.33;;;2.03;;
77597;SDS011;66756;42.774;23.354;2023-08-06T06:54:29;2.53;;;1.20;;
77597;SDS011;66756;42.774;23.354;2023-08-06T06:56:55;1.42;;;0.45;;
77597;SDS011;66756;42.774;23.354;2023-08-06T06:59:21;1.83;;;1.58;;
77597;SDS011;66756;42.774;23.354;2023-08-06T07:01:47;2.08;;;1.80;;
77597;SDS011;66756;42.774;23.354;2023-08-06T07:04:13;1.67;;;1.42;;
77597;SDS011;66756;42.774;23.354;2023-08-06T07:06:39;2.58;;;1.73;;
77597;SDS011;66756;42.774;23.354;2023-08-06T07:09:05;3.45;;;2.03;;
77597;SDS011;66756;42.774;23.354;2023-08-06T07:11:31;3.47;;;1.52;;
77597;SDS011;66756;42.774;23.354;2023-08-06T07:13:57;3.15;;;1.77;;
77597;SDS011;66756;42.774;23.354;2023-08-06T07:16:27;2.20;;;1.60;;
77597;SDS011;66756;42.774;23.354;2023-08-06T07:18:54;2.95;;;1.63;;
77597;SDS011;66756;42.774;23.354;2023-08-06T07:21:20;2.45;;;1.95;;
77597;SDS011;66756;42.774;23.354;2023-08-06T07:23:46;2.40;;;1.88;;
77597;SDS011;66756;42.774;23.354;2023-08-06T07:26:14;2.08;;;1.88;;
77597;SDS011;66756;42.774;23.354;2023-08-06T07:28:41;2.00;;;1.50;;
77597;SDS011;66756;42.774;23.354;2023-08-06T07:31:07;3.58;;;1.90;;
77597;SDS011;66756;42.774;23.354;2023-08-06T07:33:33;2.50;;;1.90;;
77597;SDS011;66756;42.774;23.354;2023-08-06T07:35:59;2.78;;;1.40;;
77597;SDS011;66756;42.774;23.354;2023-08-06T07:38:25;3.08;;;2.35;;
77597;SDS011;66756;42.774;23.354;2023-08-06T07:40:52;3.55;;;2.25;;
77597;SDS011;66756;42.774;23.354;2023-08-06T07:43:18;2.65;;;1.90;;
77597;SDS011;66756;42.774;23.354;2023-08-06T07:45:45;2.50;;;2.30;;
77597;SDS011;66756;42.774;23.354;2023-08-06T07:48:11;3.28;;;2.65;;
77597;SDS011;66756;42.774;23.354;2023-08-06T07:50:37;5.05;;;2.28;;
77597;SDS011;66756;42.774;23.354;2023-08-06T07:53:03;2.67;;;2.30;;
77597;SDS011;66756;42.774;23.354;2023-08-06T07:55:29;2.40;;;2.13;;
77597;SDS011;66756;42.774;23.354;2023-08-06T07:57:55;2.60;;;2.15;;
77597;SDS011;66756;42.774;23.354;2023-08-06T08:00:21;2.53;;;2.00;;
77597;SDS011;66756;42.774;23.354;2023-08-06T08:02:47;3.03;;;2.47;;
77597;SDS011;66756;42.774;23.354;2023-08-06T08:05:13;2.47;;;2.28;;
77597;SDS011;66756;42.774;23.354;2023-08-06T08:07:39;3.65;;;2.13;;
77597;SDS011;66756;42.774;23.354;2023-08-06T08:10:05;2.58;;;1.85;;
77597;SDS011;66756;42.774;23.354;2023-08-06T08:12:32;2.38;;;2.17;;
77597;SDS011;66756;42.774;23.354;2023-08-06T08:14:58;2.67;;;2.10;;
77597;SDS011;66756;42.774;23.354;2023-08-06T08:17:24;3.30;;;1.80;;
77597;SDS011;66756;42.774;23.354;2023-08-06T08:19:50;3.28;;;2.05;;
77597;SDS011;66756;42.774;23.354;2023-08-06T08:22:16;3.42;;;2.88;;
77597;SDS011;66756;42.774;23.354;2023-08-06T08:24:42;3.83;;;2.28;;
77597;SDS011;66756;42.774;23.354;2023-08-06T08:27:08;3.28;;;2.13;;
77597;SDS011;66756;42.774;23.354;2023-08-06T08:29:34;3.58;;;1.45;;
77597;SDS011;66756;42.774;23.354;2023-08-06T08:32:00;2.95;;;2.60;;
77597;SDS011;66756;42.774;23.354;2023-08-06T08:34:28;2.25;;;1.88;;
77597;SDS011;66756;42.774;23.354;2023-08-06T08:36:54;2.35;;;2.10;;
77597;SDS011;66756;42.774;23.354;2023-08-06T08:39:20;2.42;;;1.80;;
77597;SDS011;66756;42.774;23.354;2023-08-06T08:41:46;2.70;;;2.33;;
77597;SDS011;66756;42.774;23.354;2023-08-06T08:44:12;3.38;;;2.72;;
77597;SDS011;66756;42.774;23.354;2023-08-06T08:46:40;3.45;;;2.42;;
77597;SDS011;66756;42.774;23.354;2023-08-06T08:49:06;2.25;;;1.85;;
77597;SDS011;66756;42.774;23.354;2023-08-06T08:51:33;3.22;;;2.47;;
77597;SDS011;66756;42.774;23.354;2023-08-06T08:54:00;2.33;;;2.10;;
77597;SDS011;66756;42.774;23.354;2023-08-06T08:56:28;2.55;;;2.10;;
77597;SDS011;66756;42.774;23.354;2023-08-06T08:58:54;2.60;;;2.40;;
77597;SDS011;66756;42.774;23.354;2023-08-06T09:01:21;3.47;;;2.55;;
77597;SDS011;66756;42.774;23.354;2023-08-06T09:03:47;3.75;;;3.45;;
77597;SDS011;66756;42.774;23.354;2023-08-06T09:06:13;2.92;;;2.42;;
77597;SDS011;66756;42.774;23.354;2023-08-06T09:08:51;4.65;;;2.70;;
77597;SDS011;66756;42.774;23.354;2023-08-06T09:11:19;3.70;;;2.75;;
77597;SDS011;66756;42.774;23.354;2023-08-06T09:13:46;2.80;;;2.50;;
77597;SDS011;66756;42.774;23.354;2023-08-06T09:16:13;2.58;;;1.40;;
77597;SDS011;66756;42.774;23.354;2023-08-06T09:18:39;2.67;;;2.47;;
77597;SDS011;66756;42.774;23.354;2023-08-06T09:21:05;3.17;;;2.53;;
77597;SDS011;66756;42.774;23.354;2023-08-06T09:23:31;2.78;;;2.28;;
77597;SDS011;66756;42.774;23.354;2023-08-06T09:25:58;2.97;;;2.75;;
77597;SDS011;66756;42.774;23.354;2023-08-06T09:28:25;3.10;;;2.78;;
77597;SDS011;66756;42.774;23.354;2023-08-06T09:31:02;5.13;;;2.75;;
77597;SDS011;66756;42.774;23.354;2023-08-06T09:33:29;4.63;;;2.90;;
77597;SDS011;66756;42.774;23.354;2023-08-06T09:35:55;2.65;;;2.42;;
77597;SDS011;66756;42.774;23.354;2023-08-06T09:38:21;3.05;;;1.15;;
77597;SDS011;66756;42.774;23.354;2023-08-06T09:40:47;2.78;;;2.42;;
77597;SDS011;66756;42.774;23.354;2023-08-06T09:43:13;2.92;;;2.47;;
77597;SDS011;66756;42.774;23.354;2023-08-06T09:45:39;3.50;;;2.30;;
77597;SDS011;66756;42.774;23.354;2023-08-06T09:48:06;3.25;;;1.50;;
77597;SDS011;66756;42.774;23.354;2023-08-06T09:50:33;3.10;;;2.60;;
77597;SDS011;66756;42.774;23.354;2023-08-06T09:53:01;2.58;;;2.38;;
77597;SDS011;66756;42.774;23.354;2023-08-06T09:55:28;2.97;;;2.28;;
77597;SDS011;66756;42.774;23.354;2023-08-06T09:57:55;8.85;;;3.17;;
77597;SDS011;66756;42.774;23.354;2023-08-06T10:00:21;8.60;;;3.47;;
77597;SDS011;66756;42.774;23.354;2023-08-06T10:02:48;2.72;;;2.25;;
77597;SDS011;66756;42.774;23.354;2023-08-06T10:05:16;4.70;;;2.88;;
77597;SDS011;66756;42.774;23.354;2023-08-06T10:07:43;2.47;;;1.90;;
77597;SDS011;66756;42.774;23.354;2023-08-06T10:10:10;2.38;;;2.17;;
77597;SDS011;66756;42.774;23.354;2023-08-06T10:12:40;2.65;;;2.33;;
77597;SDS011;66756;42.774;23.354;2023-08-06T10:15:08;2.20;;;1.63;;
77597;SDS011;66756;42.774;23.354;2023-08-06T10:17:35;2.97;;;2.17;;
77597;SDS011;66756;42.774;23.354;2023-08-06T10:20:03;2.58;;;2.00;;
77597;SDS011;66756;42.774;23.354;2023-08-06T10:22:29;2.80;;;1.33;;
77597;SDS011;66756;42.774;23.354;2023-08-06T10:24:58;2.70;;;2.17;;
77597;SDS011;66756;42.774;23.354;2023-08-06T10:32:47;2.28;;;1.98;;
77597;SDS011;66756;42.774;23.354;2023-08-06T10:40:33;2.47;;;2.00;;
77597;SDS011;66756;42.774;23.354;2023-08-06T10:43:03;3.15;;;2.17;;
77597;SDS011;66756;42.774;23.354;2023-08-06T10:45:33;2.95;;;2.20;;
77597;SDS011;66756;42.774;23.354;2023-08-06T10:48:00;2.65;;;2.42;;
77597;SDS011;66756;42.774;23.354;2023-08-06T10:50:26;2.75;;;2.15;;
77597;SDS011;66756;42.774;23.354;2023-08-06T10:52:52;2.70;;;2.42;;
77597;SDS011;66756;42.774;23.354;2023-08-06T10:55:25;2.35;;;2.13;;
77597;SDS011;66756;42.774;23.354;2023-08-06T10:57:52;4.05;;;2.45;;
77597;SDS011;66756;42.774;23.354;2023-08-06T11:00:18;3.33;;;3.10;;
77597;SDS011;66756;42.774;23.354;2023-08-06T11:02:46;2.25;;;2.05;;
77597;SDS011;66756;42.774;23.354;2023-08-06T11:05:14;4.43;;;2.30;;
77597;SDS011;66756;42.774;23.354;2023-08-06T11:07:40;2.40;;;1.10;;
77597;SDS011;66756;42.774;23.354;2023-08-06T11:10:08;3.33;;;2.42;;
77597;SDS011;66756;42.774;23.354;2023-08-06T11:12:34;3.58;;;2.80;;
77597;SDS011;66756;42.774;23.354;2023-08-06T11:15:00;2.53;;;1.67;;
77597;SDS011;66756;42.774;23.354;2023-08-06T11:17:27;4.13;;;3.38;;
77597;SDS011;66756;42.774;23.354;2023-08-06T11:19:53;3.05;;;2.75;;
77597;SDS011;66756;42.774;23.354;2023-08-06T11:22:22;4.38;;;3.88;;
77597;SDS011;66756;42.774;23.354;2023-08-06T11:24:48;4.45;;;4.05;;
77597;SDS011;66756;42.774;23.354;2023-08-06T11:27:15;3.50;;;2.80;;
77597;SDS011;66756;42.774;23.354;2023-08-06T11:29:41;3.58;;;3.08;;
77597;SDS011;66756;42.774;23.354;2023-08-06T11:32:08;4.50;;;4.10;;
77597;SDS011;66756;42.774;23.354;2023-08-06T11:34:34;5.22;;;4.78;;
77597;SDS011;66756;42.774;23.354;2023-08-06T11:37:02;6.25;;;5.65;;
77597;SDS011;66756;42.774;23.354;2023-08-06T11:39:31;5.30;;;4.80;;
77597;SDS011;66756;42.774;23.354;2023-08-06T11:41:57;5.40;;;3.15;;
77597;SDS011;66756;42.774;23.354;2023-08-06T11:44:25;5.90;;;4.38;;
77597;SDS011;66756;42.774;23.354;2023-08-06T11:46:55;4.85;;;4.28;;
77597;SDS011;66756;42.774;23.354;2023-08-06T11:52:23;2.90;;;2.60;;
77597;SDS011;66756;42.774;23.354;2023-08-06T11:54:59;4.28;;;3.42;;
77597;SDS011;66756;42.774;23.354;2023-08-06T11:57:31;3.13;;;2.30;;
77597;SDS011;66756;42.774;23.354;2023-08-06T12:02:32;5.00;;;4.53;;
77597;SDS011;66756;42.774;23.354;2023-08-06T12:05:16;7.72;;;4.35;;
77597;SDS011;66756;42.774;23.354;2023-08-06T12:07:43;3.45;;;2.53;;
77597;SDS011;66756;42.774;23.354;2023-08-06T12:10:10;4.05;;;3.03;;
77597;SDS011;66756;42.774;23.354;2023-08-06T12:12:36;4.35;;;3.92;;
77597;SDS011;66756;42.774;23.354;2023-08-06T12:15:03;4.32;;;3.92;;
77597;SDS011;66756;42.774;23.354;2023-08-06T12:17:31;6.30;;;5.55;;
77597;SDS011;66756;42.774;23.354;2023-08-06T12:19:57;5.15;;;4.18;;
77597;SDS011;66756;42.774;23.354;2023-08-06T12:22:23;4.63;;;4.22;;
77597;SDS011;66756;42.774;23.354;2023-08-06T12:24:49;3.65;;;3.35;;
77597;SDS011;66756;42.774;23.354;2023-08-06T12:27:15;4.32;;;3.92;;
77597;SDS011;66756;42.774;23.354;2023-08-06T12:29:44;3.63;;;2.85;;
77597;SDS011;66756;42.774;23.354;2023-08-06T12:32:11;3.08;;;1.65;;
77597;SDS011;66756;42.774;23.354;2023-08-06T12:34:38;3.22;;;2.92;;
77597;SDS011;66756;42.774;23.354;2023-08-06T12:37:04;3.63;;;3.33;;
77597;SDS011;66756;42.774;23.354;2023-08-06T12:39:30;3.80;;;3.50;;
77597;SDS011;66756;42.774;23.354;2023-08-06T12:41:57;3.72;;;3.30;;
77597;SDS011;66756;42.774;23.354;2023-08-06T12:44:23;6.10;;;5.60;;
77597;SDS011;66756;42.774;23.354;2023-08-06T12:46:52;3.78;;;3.33;;
77597;SDS011;66756;42.774;23.354;2023-08-06T12:49:19;3.50;;;3.20;;
77597;SDS011;66756;42.774;23.354;2023-08-06T12:51:48;4.05;;;3.65;;
77597;SDS011;66756;42.774;23.354;2023-08-06T12:54:18;4.53;;;3.50;;
77597;SDS011;66756;42.774;23.354;2023-08-06T12:56:45;3.97;;;3.50;;
77597;SDS011;66756;42.774;23.354;2023-08-06T12:59:11;3.88;;;3.50;;
77597;SDS011;66756;42.774;23.354;2023-08-06T13:01:38;7.72;;;3.38;;
77597;SDS011;66756;42.774;23.354;2023-08-06T13:04:04;3.35;;;2.42;;
77597;SDS011;66756;42.774;23.354;2023-08-06T13:06:30;4.97;;;3.63;;
77597;SDS011;66756;42.774;23.354;2023-08-06T13:11:26;4.50;;;3.53;;
77597;SDS011;66756;42.774;23.354;2023-08-06T13:13:52;4.82;;;4.40;;
77597;SDS011;66756;42.774;23.354;2023-08-06T13:16:19;4.85;;;4.38;;
77597;SDS011;66756;42.774;23.354;2023-08-06T13:18:45;4.57;;;4.18;;
77597;SDS011;66756;42.774;23.354;2023-08-06T13:21:11;4.97;;;3.72;;
77597;SDS011;66756;42.774;23.354;2023-08-06T13:23:38;4.32;;;3.92;;
77597;SDS011;66756;42.774;23.354;2023-08-06T13:26:04;4.75;;;3.88;;
77597;SDS011;66756;42.774;23.354;2023-08-06T13:28:30;4.50;;;4.10;;
77597;SDS011;66756;42.774;23.354;2023-08-06T13:30:56;4.50;;;4.10;;
77597;SDS011;66756;42.774;23.354;2023-08-06T13:33:22;4.35;;;3.95;;
77597;SDS011;66756;42.774;23.354;2023-08-06T13:35:48;4.93;;;3.85;;
77597;SDS011;66756;42.774;23.354;2023-08-06T13:38:15;5.35;;;4.63;;
77597;SDS011;66756;42.774;23.354;2023-08-06T13:40:42;4.03;;;3.72;;
77597;SDS011;66756;42.774;23.354;2023-08-06T13:43:09;4.78;;;4.38;;
77597;SDS011;66756;42.774;23.354;2023-08-06T13:45:35;5.13;;;3.40;;
77597;SDS011;66756;42.774;23.354;2023-08-06T13:48:03;4.78;;;3.90;;
77597;SDS011;66756;42.774;23.354;2023-08-06T13:50:29;5.07;;;4.60;;
77597;SDS011;66756;42.774;23.354;2023-08-06T13:52:55;4.50;;;4.07;;
77597;SDS011;66756;42.774;23.354;2023-08-06T13:55:21;4.38;;;3.85;;
77597;SDS011;66756;42.774;23.354;2023-08-06T13:57:47;4.93;;;4.53;;
77597;SDS011;66756;42.774;23.354;2023-08-06T14:00:14;4.00;;;2.25;;
77597;SDS011;66756;42.774;23.354;2023-08-06T14:02:40;4.43;;;4.03;;
77597;SDS011;66756;42.774;23.354;2023-08-06T14:05:09;4.38;;;4.07;;
77597;SDS011;66756;42.774;23.354;2023-08-06T14:07:35;4.93;;;4.53;;
77597;SDS011;66756;42.774;23.354;2023-08-06T14:10:04;3.85;;;3.42;;
77597;SDS011;66756;42.774;23.354;2023-08-06T14:12:30;5.22;;;4.22;;
77597;SDS011;66756;42.774;23.354;2023-08-06T14:14:57;3.97;;;3.65;;
77597;SDS011;66756;42.774;23.354;2023-08-06T14:17:24;4.70;;;4.25;;
77597;SDS011;66756;42.774;23.354;2023-08-06T14:19:50;5.15;;;4.15;;
77597;SDS011;66756;42.774;23.354;2023-08-06T14:22:16;4.35;;;3.95;;
77597;SDS011;66756;42.774;23.354;2023-08-06T14:24:42;4.47;;;3.55;;
77597;SDS011;66756;42.774;23.354;2023-08-06T14:27:08;4.03;;;3.60;;
77597;SDS011;66756;42.774;23.354;2023-08-06T14:29:34;5.32;;;4.57;;
77597;SDS011;66756;42.774;23.354;2023-08-06T14:32:00;3.95;;;2.50;;
77597;SDS011;66756;42.774;23.354;2023-08-06T14:34:27;3.53;;;2.05;;
77597;SDS011;66756;42.774;23.354;2023-08-06T14:36:53;3.38;;;3.08;;
77597;SDS011;66756;42.774;23.354;2023-08-06T14:39:19;3.00;;;2.20;;
77597;SDS011;66756;42.774;23.354;2023-08-06T14:41:45;2.78;;;2.33;;
77597;SDS011;66756;42.774;23.354;2023-08-06T14:44:12;4.40;;;3.85;;
77597;SDS011;66756;42.774;23.354;2023-08-06T14:46:38;5.60;;;3.55;;
77597;SDS011;66756;42.774;23.354;2023-08-06T14:49:04;4.85;;;3.60;;
77597;SDS011;66756;42.774;23.354;2023-08-06T14:51:30;4.63;;;4.22;;
77597;SDS011;66756;42.774;23.354;2023-08-06T14:53:56;4.38;;;3.00;;
77597;SDS011;66756;42.774;23.354;2023-08-06T14:56:22;4.47;;;3.75;;
77597;SDS011;66756;42.774;23.354;2023-08-06T14:58:48;4.43;;;4.03;;